Big Bear Station Historical Data
Daily Summary for November 9, 2017 Units:  English    Metric   Both
« Previous Day
Next Day »
Daily Weekly Monthly Yearly Custom
  High: Low: Average:
Temperature: 60.6 °F 32.2 °F 42.8 °F
Dew Point: 40.2 °F 10.1 °F 24.9 °F
Humidity: 75 % 21 % 51 %
Wind Speed: 6.3 mph 0.0 mph 1.1 mph
Wind Gust: -999.0 mph - -
Wind:- - West
Pressure: 30.17 in 30.12 in -
Precipitation: 0.00 in    
Historical Graphs
 
 
Tabular Data for November 9, 2017
Time Temperature Dew Point Pressure Wind Wind Speed Wind Gust Humidity Rainfall Rate (Hourly)
00:09 37.0 °F 28.5 °F 30.15 in South 2.7 mph -999.0 mph 71 % 0 in
00:25 37.0 °F 28.8 °F 30.14 in South 2.2 mph -999.0 mph 72 % 0 in
00:40 37.2 °F 28.3 °F 30.15 in Calm   -999.0 mph 70 % 0 in
00:55 36.1 °F 28.6 °F 30.14 in South 2.2 mph -999.0 mph 74 % 0 in
01:10 35.4 °F 28.3 °F 30.14 in South 1.7 mph -999.0 mph 75 % 0 in
01:26 35.8 °F 27.0 °F 30.14 in Calm   -999.0 mph 70 % 0 in
01:41 34.9 °F 26.5 °F 30.14 in Calm   -999.0 mph 71 % 0 in
01:56 34.7 °F 25.6 °F 30.13 in Calm   -999.0 mph 69 % 0 in
02:11 34.7 °F 26.3 °F 30.13 in SSE 1.7 mph -999.0 mph 71 % 0 in
02:26 36.7 °F 26.8 °F 30.13 in SSE 1.7 mph -999.0 mph 67 % 0 in
02:42 36.1 °F 25.1 °F 30.13 in Calm   -999.0 mph 64 % 0 in
02:57 37.8 °F 23.5 °F 30.13 in Calm   -999.0 mph 56 % 0 in
03:12 37.9 °F 23.6 °F 30.12 in Calm   -999.0 mph 56 % 0 in
03:27 36.9 °F 23.1 °F 30.13 in Calm   -999.0 mph 57 % 0 in
03:42 37.0 °F 22.3 °F 30.13 in Calm   -999.0 mph 55 % 0 in
03:58 36.7 °F 22.5 °F 30.12 in Calm   -999.0 mph 56 % 0 in
04:13 35.8 °F 24.8 °F 30.13 in Calm   -999.0 mph 64 % 0 in
04:28 35.6 °F 23.5 °F 30.13 in Calm   -999.0 mph 61 % 0 in
04:43 34.9 °F 25.8 °F 30.13 in Calm   -999.0 mph 69 % 0 in
04:58 34.9 °F 24.0 °F 30.13 in Calm   -999.0 mph 64 % 0 in
05:14 34.3 °F 24.5 °F 30.13 in Calm   -999.0 mph 67 % 0 in
05:29 34.3 °F 23.8 °F 30.13 in Calm   -999.0 mph 65 % 0 in
05:44 33.8 °F 21.8 °F 30.14 in Calm   -999.0 mph 61 % 0 in
05:59 33.8 °F 21.8 °F 30.14 in Calm   -999.0 mph 61 % 0 in
06:15 34.0 °F 19.9 °F 30.14 in Calm   -999.0 mph 56 % 0 in
06:30 34.7 °F 19.7 °F 30.14 in Calm   -999.0 mph 54 % 0 in
06:45 35.1 °F 23.0 °F 30.15 in Calm   -999.0 mph 61 % 0 in
07:00 34.5 °F 15.3 °F 30.15 in Calm   -999.0 mph 45 % 0 in
07:15 34.0 °F 18.2 °F 30.15 in Calm   -999.0 mph 52 % 0 in
07:31 35.1 °F 21.4 °F 30.16 in Calm   -999.0 mph 57 % 0 in
07:46 36.5 °F 18.7 °F 30.16 in Calm   -999.0 mph 48 % 0 in
08:01 37.8 °F 20.8 °F 30.17 in Calm   -999.0 mph 50 % 0 in
08:16 41.7 °F 13.3 °F 30.17 in Calm   -999.0 mph 31 % 0 in
08:31 45.9 °F 10.1 °F 30.17 in Calm   -999.0 mph 23 % 0 in
08:47 47.7 °F 11.7 °F 30.17 in NW 1.7 mph -999.0 mph 23 % 0 in
09:02 49.1 °F 11.8 °F 30.17 in West 3.2 mph -999.0 mph 22 % 0 in
09:17 50.4 °F 12.9 °F 30.17 in West 1.1 mph -999.0 mph 22 % 0 in
09:32 51.3 °F 12.6 °F 30.17 in NW 2.2 mph -999.0 mph 21 % 0 in
09:47 53.1 °F 16.2 °F 30.17 in NW 3.7 mph -999.0 mph 23 % 0 in
10:03 54.1 °F 16.1 °F 30.17 in NW 2.7 mph -999.0 mph 22 % 0 in
10:18 54.0 °F 17.0 °F 30.17 in WNW 2.2 mph -999.0 mph 23 % 0 in
10:33 54.3 °F 26.5 °F 30.17 in NW 3.7 mph -999.0 mph 34 % 0 in
10:49 54.3 °F 27.2 °F 30.17 in NW 3.7 mph -999.0 mph 35 % 0 in
11:04 55.2 °F 30.0 °F 30.16 in NNW 4.2 mph -999.0 mph 38 % 0 in
11:19 55.2 °F 30.0 °F 30.16 in NNW 3.7 mph -999.0 mph 38 % 0 in
11:34 56.3 °F 30.3 °F 30.15 in NNW 2.7 mph -999.0 mph 37 % 0 in
11:50 56.5 °F 31.8 °F 30.15 in North 3.7 mph -999.0 mph 39 % 0 in
12:05 57.7 °F 33.5 °F 30.14 in NW 2.2 mph -999.0 mph 40 % 0 in
12:20 59.7 °F 30.5 °F 30.14 in NNW 6.3 mph -999.0 mph 33 % 0 in
12:36 60.6 °F 27.3 °F 30.13 in West 3.2 mph -999.0 mph 28 % 0 in
12:51 60.3 °F 27.9 °F 30.13 in West 1.7 mph -999.0 mph 29 % 0 in
13:07 59.0 °F 27.6 °F 30.13 in West 3.7 mph -999.0 mph 30 % 0 in
13:22 57.9 °F 31.1 °F 30.13 in NW 4.2 mph -999.0 mph 36 % 0 in
13:38 56.1 °F 37.2 °F 30.13 in NW 3.2 mph -999.0 mph 49 % 0 in
13:53 54.7 °F 37.4 °F 30.13 in NW 2.7 mph -999.0 mph 52 % 0 in
14:08 53.8 °F 40.2 °F 30.13 in NW 3.7 mph -999.0 mph 60 % 0 in
14:23 52.9 °F 39.8 °F 30.13 in WNW 2.7 mph -999.0 mph 61 % 0 in
14:39 52.7 °F 37.0 °F 30.14 in NNW 3.2 mph -999.0 mph 55 % 0 in
14:54 52.9 °F 37.6 °F 30.14 in Calm   -999.0 mph 56 % 0 in
15:10 52.7 °F 35.6 °F 30.13 in Calm   -999.0 mph 52 % 0 in
15:25 52.3 °F 37.5 °F 30.13 in West 1.7 mph -999.0 mph 57 % 0 in
15:40 51.8 °F 38.4 °F 30.13 in Calm   -999.0 mph 60 % 0 in
15:55 51.3 °F 38.3 °F 30.13 in Calm   -999.0 mph 61 % 0 in
16:10 50.4 °F 37.9 °F 30.13 in Calm   -999.0 mph 62 % 0 in
16:26 49.5 °F 37.4 °F 30.12 in Calm   -999.0 mph 63 % 0 in
16:41 48.4 °F 36.8 °F 30.12 in Calm   -999.0 mph 64 % 0 in
16:56 47.3 °F 35.7 °F 30.12 in SSE 2.2 mph -999.0 mph 64 % 0 in
17:11 46.0 °F 33.3 °F 30.12 in Calm   -999.0 mph 61 % 0 in
17:26 45.0 °F 33.2 °F 30.12 in Calm   -999.0 mph 63 % 0 in
17:57 42.6 °F 19.9 °F 30.13 in Calm   -999.0 mph 40 % 0 in
18:12 41.7 °F 20.8 °F 30.13 in Calm   -999.0 mph 43 % 0 in
18:27 41.0 °F 19.1 °F 30.13 in Calm   -999.0 mph 41 % 0 in
18:42 40.5 °F 18.6 °F 30.13 in South 2.7 mph -999.0 mph 41 % 0 in
18:58 39.6 °F 17.2 °F 30.13 in Calm   -999.0 mph 40 % 0 in
19:13 39.2 °F 16.9 °F 30.13 in Calm   -999.0 mph 40 % 0 in
19:28 38.5 °F 17.4 °F 30.13 in SSE 1.7 mph -999.0 mph 42 % 0 in
19:44 39.0 °F 16.7 °F 30.14 in South 2.7 mph -999.0 mph 40 % 0 in
19:59 37.9 °F 20.4 °F 30.14 in Calm   -999.0 mph 49 % 0 in
20:14 38.1 °F 20.1 °F 30.14 in SSE 1.7 mph -999.0 mph 48 % 0 in
20:29 37.8 °F 17.8 °F 30.14 in SE 1.7 mph -999.0 mph 44 % 0 in
20:44 37.6 °F 17.6 °F 30.14 in South 2.2 mph -999.0 mph 44 % 0 in
21:00 37.0 °F 19.6 °F 30.14 in Calm   -999.0 mph 49 % 0 in
21:15 37.2 °F 18.3 °F 30.14 in Calm   -999.0 mph 46 % 0 in
21:30 36.3 °F 17.5 °F 30.14 in Calm   -999.0 mph 46 % 0 in
21:45 36.1 °F 19.7 °F 30.14 in Calm   -999.0 mph 51 % 0 in
22:00 35.4 °F 21.3 °F 30.14 in Calm   -999.0 mph 56 % 0 in
22:16 35.1 °F 23.0 °F 30.14 in Calm   -999.0 mph 61 % 0 in
22:31 34.7 °F 25.6 °F 30.14 in Calm   -999.0 mph 69 % 0 in
22:46 34.3 °F 25.9 °F 30.14 in Calm   -999.0 mph 71 % 0 in
23:01 33.8 °F 25.4 °F 30.14 in Calm   -999.0 mph 71 % 0 in
23:17 33.4 °F 24.0 °F 30.14 in Calm   -999.0 mph 68 % 0 in
23:32 32.9 °F 20.1 °F 30.13 in Calm   -999.0 mph 59 % 0 in
23:47 32.2 °F 18.3 °F 30.13 in Calm   -999.0 mph 56 % 0 in
Big Bear CA Weather
Compliments of Weather Underground - 1.5 mb